sensor_id;sensor_type;location;lat;lon;timestamp;pressure;altitude;pressure_sealevel;temperature;humidity
70458;BME280;57919;56.194;95.716;2022-10-18T00:02:48;98669.84;;;8.37;62.33
70458;BME280;57919;56.194;95.716;2022-10-18T00:12:51;98661.44;;;8.30;62.05
70458;BME280;57919;56.194;95.716;2022-10-18T00:22:53;98668.88;;;8.38;61.41
70458;BME280;57919;56.194;95.716;2022-10-18T00:32:55;98664.78;;;8.23;61.25
70458;BME280;57919;56.194;95.716;2022-10-18T00:42:57;98684.91;;;8.39;61.64
70458;BME280;57919;56.194;95.716;2022-10-18T00:53:02;98679.38;;;8.41;61.47
70458;BME280;57919;56.194;95.716;2022-10-18T01:03:05;98677.69;;;8.40;61.32
70458;BME280;57919;56.194;95.716;2022-10-18T01:13:21;98665.53;;;8.55;60.43
70458;BME280;57919;56.194;95.716;2022-10-18T01:33:56;98682.16;;;9.20;57.35
70458;BME280;57919;56.194;95.716;2022-10-18T01:44:02;98698.25;;;9.60;56.17
70458;BME280;57919;56.194;95.716;2022-10-18T01:54:05;98698.25;;;9.69;55.95
70458;BME280;57919;56.194;95.716;2022-10-18T02:14:48;98736.22;;;9.97;54.62
70458;BME280;57919;56.194;95.716;2022-10-18T02:24:53;98747.44;;;10.12;54.17
70458;BME280;57919;56.194;95.716;2022-10-18T02:35:46;98761.81;;;9.83;55.00
70458;BME280;57919;56.194;95.716;2022-10-18T02:45:41;98777.00;;;9.65;55.56
70458;BME280;57919;56.194;95.716;2022-10-18T02:55:43;98799.63;;;9.74;55.00
70458;BME280;57919;56.194;95.716;2022-10-18T03:05:48;98791.63;;;9.53;55.79
70458;BME280;57919;56.194;95.716;2022-10-18T03:15:51;98813.28;;;9.22;57.18
70458;BME280;57919;56.194;95.716;2022-10-18T03:25:53;98816.97;;;8.91;58.64
70458;BME280;57919;56.194;95.716;2022-10-18T03:35:54;98826.16;;;8.79;60.03
70458;BME280;57919;56.194;95.716;2022-10-18T03:45:56;98813.94;;;8.54;61.50
70458;BME280;57919;56.194;95.716;2022-10-18T03:55:58;98813.81;;;8.55;62.45
70458;BME280;57919;56.194;95.716;2022-10-18T04:06:00;98800.66;;;8.62;63.20
70458;BME280;57919;56.194;95.716;2022-10-18T04:16:04;98810.91;;;8.68;63.60
70458;BME280;57919;56.194;95.716;2022-10-18T04:26:06;98825.91;;;8.61;64.21
70458;BME280;57919;56.194;95.716;2022-10-18T04:36:08;98799.25;;;8.67;64.34
70458;BME280;57919;56.194;95.716;2022-10-18T04:46:10;98776.66;;;8.89;63.38
70458;BME280;57919;56.194;95.716;2022-10-18T04:56:12;98799.13;;;9.39;62.28
70458;BME280;57919;56.194;95.716;2022-10-18T05:06:14;98792.06;;;9.67;60.66
70458;BME280;57919;56.194;95.716;2022-10-18T05:16:16;98789.81;;;9.82;59.92
70458;BME280;57919;56.194;95.716;2022-10-18T05:26:18;98801.34;;;9.84;59.43
70458;BME280;57919;56.194;95.716;2022-10-18T05:36:20;98803.75;;;9.87;59.55
70458;BME280;57919;56.194;95.716;2022-10-18T05:46:23;98820.09;;;9.95;59.29
70458;BME280;57919;56.194;95.716;2022-10-18T05:56:25;98822.28;;;10.30;57.80
70458;BME280;57919;56.194;95.716;2022-10-18T06:06:27;98815.19;;;10.86;56.31
70458;BME280;57919;56.194;95.716;2022-10-18T06:16:29;98834.53;;;11.00;56.25
70458;BME280;57919;56.194;95.716;2022-10-18T06:26:30;98818.72;;;11.33;56.19
70458;BME280;57919;56.194;95.716;2022-10-18T06:36:32;98844.28;;;11.21;56.17
70458;BME280;57919;56.194;95.716;2022-10-18T06:46:34;98836.72;;;11.52;55.49
70458;BME280;57919;56.194;95.716;2022-10-18T06:56:37;98836.38;;;11.37;54.90
70458;BME280;57919;56.194;95.716;2022-10-18T07:06:38;98829.03;;;10.83;55.12
70458;BME280;57919;56.194;95.716;2022-10-18T07:16:41;98829.09;;;10.34;55.89
70458;BME280;57919;56.194;95.716;2022-10-18T07:26:42;98843.47;;;10.54;56.17
70458;BME280;57919;56.194;95.716;2022-10-18T07:36:44;98850.72;;;10.44;56.53
70458;BME280;57919;56.194;95.716;2022-10-18T07:46:47;98844.03;;;10.39;56.43
70458;BME280;57919;56.194;95.716;2022-10-18T07:56:48;98869.47;;;9.97;56.90
70458;BME280;57919;56.194;95.716;2022-10-18T08:06:50;98877.78;;;9.65;58.38
70458;BME280;57919;56.194;95.716;2022-10-18T08:16:54;98893.44;;;9.31;59.37
70458;BME280;57919;56.194;95.716;2022-10-18T08:26:55;98898.72;;;9.43;59.98
70458;BME280;57919;56.194;95.716;2022-10-18T08:36:57;98895.91;;;9.44;59.99
70458;BME280;57919;56.194;95.716;2022-10-18T08:47:04;98911.34;;;9.32;60.80
70458;BME280;57919;56.194;95.716;2022-10-18T08:57:12;98915.13;;;8.99;61.29
70458;BME280;57919;56.194;95.716;2022-10-18T09:38:14;98964.19;;;7.86;63.11
70458;BME280;57919;56.194;95.716;2022-10-18T09:48:27;98967.59;;;7.99;63.00
70458;BME280;57919;56.194;95.716;2022-10-18T09:58:48;98966.66;;;7.78;63.44
70458;BME280;57919;56.194;95.716;2022-10-18T10:09:40;98958.22;;;7.60;64.33
70458;BME280;57919;56.194;95.716;2022-10-18T10:19:59;98966.78;;;7.43;64.18
70458;BME280;57919;56.194;95.716;2022-10-18T10:40:26;98964.03;;;6.98;65.16
70458;BME280;57919;56.194;95.716;2022-10-18T10:50:29;98964.03;;;6.98;65.79
70458;BME280;57919;56.194;95.716;2022-10-18T11:00:43;98963.44;;;6.95;66.11
70458;BME280;57919;56.194;95.716;2022-10-18T11:11:15;98975.13;;;6.83;66.67
70458;BME280;57919;56.194;95.716;2022-10-18T11:21:28;98979.72;;;6.69;67.48
70458;BME280;57919;56.194;95.716;2022-10-18T11:52:43;98988.75;;;6.33;67.84
70458;BME280;57919;56.194;95.716;2022-10-18T12:03:12;98997.97;;;6.05;68.57
70458;BME280;57919;56.194;95.716;2022-10-18T12:14:09;99007.16;;;5.77;69.64
70458;BME280;57919;56.194;95.716;2022-10-18T12:34:02;99018.44;;;5.70;70.09
70458;BME280;57919;56.194;95.716;2022-10-18T12:44:27;99024.84;;;5.93;70.10
70458;BME280;57919;56.194;95.716;2022-10-18T12:54:32;99002.81;;;6.00;70.12
70458;BME280;57919;56.194;95.716;2022-10-18T13:04:35;99025.25;;;6.12;70.15
70458;BME280;57919;56.194;95.716;2022-10-18T13:15:04;99022.09;;;6.18;69.61
70458;BME280;57919;56.194;95.716;2022-10-18T13:25:32;99017.75;;;6.04;69.54
70458;BME280;57919;56.194;95.716;2022-10-18T13:45:57;99031.41;;;5.76;70.13
70458;BME280;57919;56.194;95.716;2022-10-18T13:56:06;99031.19;;;5.79;69.76
70458;BME280;57919;56.194;95.716;2022-10-18T14:06:22;99044.81;;;5.76;70.09
70458;BME280;57919;56.194;95.716;2022-10-18T14:16:30;99057.28;;;5.64;70.09
70458;BME280;57919;56.194;95.716;2022-10-18T14:26:35;99053.84;;;5.24;70.79
70458;BME280;57919;56.194;95.716;2022-10-18T14:36:41;99065.22;;;5.40;71.26
70458;BME280;57919;56.194;95.716;2022-10-18T14:57:06;99065.56;;;5.74;70.58
70458;BME280;57919;56.194;95.716;2022-10-18T15:07:16;99071.00;;;5.85;70.41
70458;BME280;57919;56.194;95.716;2022-10-18T15:17:30;99069.06;;;5.87;70.13
70458;BME280;57919;56.194;95.716;2022-10-18T15:27:35;99085.19;;;5.87;70.44
70458;BME280;57919;56.194;95.716;2022-10-18T15:37:43;99094.84;;;6.02;70.68
70458;BME280;57919;56.194;95.716;2022-10-18T15:58:22;99104.53;;;5.67;72.48
70458;BME280;57919;56.194;95.716;2022-10-18T16:08:27;99099.38;;;5.51;73.11
70458;BME280;57919;56.194;95.716;2022-10-18T16:18:30;99099.47;;;5.37;73.24
70458;BME280;57919;56.194;95.716;2022-10-18T16:28:33;99100.63;;;5.33;73.35
70458;BME280;57919;56.194;95.716;2022-10-18T16:38:36;99107.03;;;5.17;72.77
70458;BME280;57919;56.194;95.716;2022-10-18T16:48:38;99097.44;;;4.88;72.81
70458;BME280;57919;56.194;95.716;2022-10-18T16:58:40;99104.31;;;4.65;72.97
70458;BME280;57919;56.194;95.716;2022-10-18T17:08:43;99108.78;;;4.38;73.66
70458;BME280;57919;56.194;95.716;2022-10-18T17:18:44;99112.47;;;4.22;73.72
70458;BME280;57919;56.194;95.716;2022-10-18T17:28:51;99079.22;;;3.98;74.25
70458;BME280;57919;56.194;95.716;2022-10-18T17:38:53;99107.00;;;4.24;73.82
70458;BME280;57919;56.194;95.716;2022-10-18T17:48:56;99105.59;;;4.04;74.44
70458;BME280;57919;56.194;95.716;2022-10-18T17:58:58;99104.06;;;4.14;74.14
70458;BME280;57919;56.194;95.716;2022-10-18T18:09:04;99097.84;;;4.14;74.17
70458;BME280;57919;56.194;95.716;2022-10-18T18:19:08;99095.75;;;4.05;73.88
70458;BME280;57919;56.194;95.716;2022-10-18T18:29:11;99103.59;;;4.08;73.81
70458;BME280;57919;56.194;95.716;2022-10-18T18:39:23;99089.00;;;3.85;73.58
70458;BME280;57919;56.194;95.716;2022-10-18T18:49:25;99089.94;;;3.70;73.86
70458;BME280;57919;56.194;95.716;2022-10-18T18:59:28;99108.09;;;3.65;73.79
70458;BME280;57919;56.194;95.716;2022-10-18T19:09:29;99104.06;;;3.43;73.59
70458;BME280;57919;56.194;95.716;2022-10-18T19:19:32;99107.47;;;3.17;74.39
70458;BME280;57919;56.194;95.716;2022-10-18T19:29:36;99107.56;;;3.15;74.30
70458;BME280;57919;56.194;95.716;2022-10-18T19:39:38;99124.94;;;3.22;74.26
70458;BME280;57919;56.194;95.716;2022-10-18T19:49:40;99116.84;;;3.24;73.87
70458;BME280;57919;56.194;95.716;2022-10-18T19:59:45;99112.75;;;3.33;74.11
70458;BME280;57919;56.194;95.716;2022-10-18T20:09:47;99120.38;;;3.39;73.66
70458;BME280;57919;56.194;95.716;2022-10-18T20:19:48;99121.81;;;3.30;73.62
70458;BME280;57919;56.194;95.716;2022-10-18T20:29:50;99109.44;;;3.13;73.56
70458;BME280;57919;56.194;95.716;2022-10-18T20:39:52;99110.09;;;3.03;74.01
70458;BME280;57919;56.194;95.716;2022-10-18T20:49:54;99136.44;;;3.09;73.71
70458;BME280;57919;56.194;95.716;2022-10-18T20:59:56;99119.66;;;3.07;73.84
70458;BME280;57919;56.194;95.716;2022-10-18T21:09:58;99111.84;;;3.18;73.89
70458;BME280;57919;56.194;95.716;2022-10-18T21:20:00;99112.63;;;3.20;73.72
70458;BME280;57919;56.194;95.716;2022-10-18T21:30:02;99112.63;;;3.20;73.61
70458;BME280;57919;56.194;95.716;2022-10-18T21:40:05;99114.75;;;3.29;73.60
70458;BME280;57919;56.194;95.716;2022-10-18T21:50:07;99146.09;;;3.55;73.50
70458;BME280;57919;56.194;95.716;2022-10-18T22:00:10;99120.63;;;3.64;74.13
70458;BME280;57919;56.194;95.716;2022-10-18T22:10:12;99143.56;;;3.97;73.60
70458;BME280;57919;56.194;95.716;2022-10-18T22:20:14;99140.69;;;4.14;73.41
70458;BME280;57919;56.194;95.716;2022-10-18T22:30:16;99158.75;;;4.25;73.30
70458;BME280;57919;56.194;95.716;2022-10-18T22:40:18;99151.56;;;4.25;72.99
70458;BME280;57919;56.194;95.716;2022-10-18T22:50:20;99166.00;;;4.37;72.81
70458;BME280;57919;56.194;95.716;2022-10-18T23:00:22;99177.09;;;3.88;73.49
70458;BME280;57919;56.194;95.716;2022-10-18T23:10:24;99172.44;;;3.47;73.53
70458;BME280;57919;56.194;95.716;2022-10-18T23:20:26;99170.09;;;3.27;74.03
70458;BME280;57919;56.194;95.716;2022-10-18T23:30:28;99166.03;;;3.36;74.28
70458;BME280;57919;56.194;95.716;2022-10-18T23:40:30;99169.41;;;3.53;74.00
70458;BME280;57919;56.194;95.716;2022-10-18T23:50:32;99151.66;;;3.52;73.84
